Nathaniel B. Palmer — WBP3210 — position and weather

sailwx.info

Track history (hours):
 
Tides and Currents Weather Stations Pressure Air Temp Water Temp Dewpoint Dewpoint Depression Visibility Wind Speed Wind Dir Waves Ship Positions

Oceanographic research ship Nathaniel B. Palmer (USA)

Contact: Ethan Norris, ethan.norris.contractor@usap.gov

Detailed information on ship capabilities available from University of Delaware's Ocean Information Center and ARCUS's ALIAS (Arctic Logistics Information and Support) project.

Owner: OFFSHORE SERVICE VESSELS, GALLIANO, LA. More information available from US FCC via Universal Licensing System and Coast Guard Vessel Documentation Center.

Last reported at 2017-Dec-17 13:00 UTC. Time now 2017-Dec-17 14:25 UTC.
Position S 53°06' W 070°54'.

Type: Other ship. MMSI: 366610000.

Wind from 310 at 16 knots

Barometer 997.1 mb
Air temperature 8.7 ° C
Water temperature -0.0 ° C

Date/timePositionNaut miles runAvg speedWind from/ knotsBaromVisibWave heightAir tempDewpointWater temp
2017-Dec-17 13:00S 53°06' W 070°54'0 0.0 310 / 16997.1 8.7 -0.0
2017-Dec-17 12:00S 53°06' W 070°54'0 0.0 320 / 10998.4 7.7 -0.0
2017-Dec-17 11:00S 53°06' W 070°54'0 0.0 999.0 6.8 -0.0
2017-Dec-17 10:00S 53°06' W 070°54'0 0.0 350 / 7999.6 6.4 -0.0
2017-Dec-17 09:00S 53°06' W 070°54'0 0.0 310 / 8999.8 5.9 -0.0
2017-Dec-17 08:00S 53°06' W 070°54'0 0.0 280 / 10999.9 5.9 -0.0
2017-Dec-17 07:00S 53°06' W 070°54'0 0.0 280 / 14999.9 6.1 -0.0
2017-Dec-17 06:00S 53°06' W 070°54'0 0.0 270 / 12999.9 5.7 -0.0
2017-Dec-17 05:00S 53°06' W 070°54'0 0.0 300 / 71000.3 5.3 -0.0
2017-Dec-17 04:00S 53°06' W 070°54'0 0.0 300 / 71000.3 5.2 -0.0
2017-Dec-17 03:00S 53°06' W 070°54'0 0.0 270 / 11999.8 5.3 -0.0
2017-Dec-17 02:00S 53°06' W 070°54'0 0.0 270 / 16998.9 5.5 -0.0
2017-Dec-17 01:00S 53°06' W 070°54'4 3.6 270 / 17997.9 6.0 -0.0
2017-Dec-17 00:00S 53°06' W 070°48'0 0.0 260 / 21997.1 6.9 -0.0
2017-Dec-16 23:00S 53°06' W 070°48'0 0.0 250 / 21996.2 7.9 -0.0
2017-Dec-16 22:00S 53°06' W 070°48'0 0.0 250 / 28995.0 7.8 -0.0
2017-Dec-16 21:00S 53°06' W 070°48'0 0.0 250 / 26994.0 7.5 -0.0
2017-Dec-16 20:00S 53°06' W 070°48'0 0.0 270 / 22993.1 6.8 -0.0
2017-Dec-16 19:00S 53°06' W 070°48'0 0.0 240 / 23992.2 7.6 -0.0
2017-Dec-16 18:00S 53°06' W 070°48'0 0.0 260 / 23991.4 7.2 -0.0
2017-Dec-16 17:00S 53°06' W 070°48'0 0.0 260 / 20990.5 7.7 -0.0
2017-Dec-16 16:00S 53°06' W 070°48'0 0.0 250 / 21989.7 7.7 -0.0
2017-Dec-16 15:00S 53°06' W 070°48'4 3.6 260 / 20989.2 7.4 -0.0
2017-Dec-16 14:00S 53°06' W 070°54'0 0.0 260 / 17988.4 7.5 -0.0
2017-Dec-16 13:00S 53°06' W 070°54'0 0.0 260 / 15988.0 6.8 -0.0
2017-Dec-16 12:00S 53°06' W 070°54'0 0.0 270 / 15987.6 6.4 -0.0
2017-Dec-16 11:00S 53°06' W 070°54'0 0.0 270 / 20986.7 5.4 -0.0
2017-Dec-16 10:00S 53°06' W 070°54'0 0.0 260 / 13986.2 4.9 -0.0
2017-Dec-16 09:00S 53°06' W 070°54'0 0.0 200 / 14982.8 7.3 -0.0
2017-Dec-16 08:00S 53°06' W 070°54'0 0.0 180 / 14981.6 8.2 -0.0
2017-Dec-16 07:00S 53°06' W 070°54'0 0.0 180 / 14981.6 8.2 -0.0
2017-Dec-16 06:00S 53°06' W 070°54'0 0.0 180 / 14981.6 8.2 -0.0
2017-Dec-16 05:00S 53°06' W 070°54'0 0.0 180 / 14981.6 8.2 -0.0
2017-Dec-16 04:00S 53°06' W 070°54'0 0.0 180 / 14981.6 8.2 -0.0
2017-Dec-16 03:00S 53°06' W 070°54'0 0.0 180 / 14981.6 8.2 -0.0
2017-Dec-16 02:00S 53°06' W 070°54'0 0.0 180 / 14981.6 8.2 -0.0
2017-Dec-16 01:00S 53°06' W 070°54'0 0.0 180 / 14981.6 8.2 -0.0
2017-Dec-16 00:00S 53°06' W 070°54'0 0.0 180 / 14981.6 8.2 -0.0
2017-Dec-15 23:00S 53°06' W 070°54'0 0.0 180 / 14981.6 8.2 -0.0
2017-Dec-15 22:00S 53°06' W 070°54'0 0.0 180 / 14981.6 8.2 -0.0
2017-Dec-15 21:00S 53°06' W 070°54'26872687.4 180 / 14981.6 8.3 -0.0
2017-Dec-15 20:00S 22°18' W 029°48'26872687.4 360 / 5413.5 3.4 -0.0
2017-Dec-15 19:00S 53°06' W 070°54'0 0.0 310 / 11982.8 9.5 -0.0
2017-Dec-15 18:00S 53°06' W 070°54'0 0.0 300 / 14983.6 9.0 -0.0
2017-Dec-15 17:00S 53°06' W 070°54'0 0.0 300 / 16984.1 8.8 -0.0
2017-Dec-15 16:00S 53°06' W 070°54'0 0.0 300 / 12984.4 9.1 -0.0
2017-Dec-15 15:00S 53°06' W 070°54'0 0.0 280 / 11984.6 8.5 -0.0
2017-Dec-15 14:00S 53°06' W 070°54'0 0.0 270 / 10985.6 8.2 -0.0
2017-Dec-15 13:00S 53°06' W 070°54'0 0.0 280 / 10986.6 7.9 -0.0
2017-Dec-15 12:00S 53°06' W 070°54'0 0.0 270 / 7987.2 7.8 -0.0
2017-Dec-15 11:00S 53°06' W 070°54'0 0.0 280 / 15987.3 7.1 -0.0
2017-Dec-15 10:00S 53°06' W 070°54'0 0.0 290 / 20987.6 6.6 -0.0
2017-Dec-15 09:00S 53°06' W 070°54'0 0.0 290 / 23988.1 6.3 -0.0
2017-Dec-15 08:00S 53°06' W 070°54'0 0.0 290 / 22988.5 6.3 -0.0
2017-Dec-15 07:00S 53°06' W 070°54'0 0.0 290 / 22988.9 6.3 -0.0
2017-Dec-15 06:00S 53°06' W 070°54'0 0.0 290 / 20989.6 6.3 -0.0
2017-Dec-15 05:00S 53°06' W 070°54'0 0.0 290 / 18990.7 6.6 -0.0
2017-Dec-15 04:00S 53°06' W 070°54'0 0.0 340 / 7991.7 6.5 -0.0
2017-Dec-15 03:00S 53°06' W 070°54'0 0.0 340 / 7992.1 6.6 -0.0
2017-Dec-15 02:00S 53°06' W 070°54'0 0.0 320 / 9992.3 6.6 -0.0
2017-Dec-15 01:00S 53°06' W 070°54'0 0.0 300 / 8992.2 7.1 -0.0
2017-Dec-15 00:00S 53°06' W 070°54'0 0.0 280 / 13992.0 7.6 -0.0
2017-Dec-14 23:00S 53°06' W 070°54'0 0.0 270 / 14992.0 7.4 -0.0
2017-Dec-14 22:00S 53°06' W 070°54'10261026.3 260 / 16991.8 7.8 -0.0
2017-Dec-14 21:00S 40°30' W 054°00'1026342.1 270 / 9756.2 6.3 -0.0
2017-Dec-14 18:00S 53°06' W 070°54'0 0.0 270 / 20989.8 9.0 7.4
2017-Dec-14 17:00S 53°06' W 070°54'0 0.0 280 / 23989.5 8.7 7.4
2017-Dec-14 16:00S 53°06' W 070°54'0 0.0 280 / 22989.3 7.3 7.4
2017-Dec-14 15:00S 53°06' W 070°54'0 0.0 280 / 21988.7 7.9 7.4
2017-Dec-14 14:00S 53°06' W 070°54'0 0.0 290 / 20988.6 6.6 7.4
2017-Dec-14 13:00S 53°06' W 070°54'0 0.0 290 / 20 7.7
2017-Dec-14 12:00S 53°06' W 070°54'0 0.0 290 / 23 7.7
2017-Dec-14 11:00S 53°06' W 070°54'0 0.0 290 / 24 7.1
2017-Dec-14 10:00S 53°06' W 070°54'0 0.0 300 / 20987.5 5.6 7.4
2017-Dec-14 09:00S 53°06' W 070°54'0 0.0 290 / 23987.9 4.9 7.4
2017-Dec-14 08:00S 53°06' W 070°54'0 0.0 290 / 23987.0 5.8 7.4
2017-Dec-14 07:00S 53°06' W 070°54'0 0.0 290 / 22987.3 5.9 7.4
2017-Dec-14 06:00S 53°06' W 070°54'0 0.0 290 / 23987.3 7.1 7.4
2017-Dec-14 05:00S 53°06' W 070°54'0 0.0 290 / 24986.9 7.4 7.4
2017-Dec-14 04:00S 53°06' W 070°54'0 0.0 280 / 24987.0 7.3 7.4
2017-Dec-14 03:00S 53°06' W 070°54'0 0.0 270 / 30986.9 7.6 7.4
2017-Dec-14 02:00S 53°06' W 070°54'0 0.0 280 / 21987.3 8.0 7.4
2017-Dec-14 01:00S 53°06' W 070°54'0 0.0 280 / 25987.1 8.5 7.4
2017-Dec-14 00:00S 53°06' W 070°54'0 0.0 270 / 26986.9 8.8 7.4
2017-Dec-13 23:00S 53°06' W 070°54'0 0.0 280 / 22986.5 11.0 7.4
2017-Dec-13 22:00S 53°06' W 070°54'0 0.0 290 / 21985.9 13.4 7.4
2017-Dec-13 21:00S 53°06' W 070°54'0 0.0 310 / 25986.4 14.7 7.4
2017-Dec-13 20:00S 53°06' W 070°54'0 0.0 320 / 24986.5 15.9 7.4
2017-Dec-13 19:00S 53°06' W 070°54'0 0.0 310 / 21987.7 15.4 7.4
2017-Dec-13 18:00S 53°06' W 070°54'0 0.0 340 / 17989.2 15.1 7.4
2017-Dec-13 17:00S 53°06' W 070°54'0 0.0 330 / 16990.4 14.5 7.4
2017-Dec-13 16:00S 53°06' W 070°54'0 0.0 320 / 13991.7 13.2 7.4
2017-Dec-13 15:00S 53°06' W 070°54'0 0.0 010 / 10992.7 11.7 7.4
2017-Dec-13 14:00S 53°06' W 070°54'0 0.0 340 / 14993.2 11.2 7.4
2017-Dec-13 13:00S 53°06' W 070°54'0 0.0 994.5 11.1 7.4
2017-Dec-13 12:00S 53°06' W 070°54'0 0.0 010 / 10995.7 11.2 7.4
2017-Dec-13 11:00S 53°06' W 070°54'0 0.0 340 / 7997.0 10.8 7.4
2017-Dec-13 10:00S 53°06' W 070°54'0 0.0 320 / 11997.3 10.3 7.4
2017-Dec-13 09:00S 53°06' W 070°54'0 0.0 330 / 11997.6 10.3 7.4
2017-Dec-13 08:00S 53°06' W 070°54'0 0.0 998.2 10.1 7.4
2017-Dec-13 07:00S 53°06' W 070°54'0 0.0 330 / 10999.0 10.5 7.4
2017-Dec-13 06:00S 53°06' W 070°54'0 0.0 320 / 9999.7 10.4 7.4
2017-Dec-13 05:00S 53°06' W 070°54'0 0.0 310 / 131000.3 10.7 7.4
2017-Dec-13 04:00S 53°06' W 070°54'0 0.0 330 / 81001.0 10.9 7.4
2017-Dec-13 03:00S 53°06' W 070°54'0 0.0 340 / 101001.1 10.9 7.4
2017-Dec-13 02:00S 53°06' W 070°54'0 0.0 360 / 81001.3 11.2 7.4
2017-Dec-13 01:00S 53°06' W 070°54'0 0.0 310 / 141001.6 11.9 7.4
2017-Dec-13 00:00S 53°06' W 070°54'0 0.0 300 / 221002.0 12.6 7.4
2017-Dec-12 23:00S 53°06' W 070°54'0 0.0 300 / 261002.2 12.9 7.4
2017-Dec-12 22:00S 53°06' W 070°54'0 0.0 290 / 231002.3 13.3 7.4
2017-Dec-12 21:00S 53°06' W 070°54'0 0.0 290 / 231002.6 13.9 7.4
2017-Dec-12 20:00S 53°06' W 070°54'0 0.0 290 / 241002.8 13.2 7.4
2017-Dec-12 19:00S 53°06' W 070°54'0 0.0 290 / 221003.1 12.9 7.4
2017-Dec-12 18:00S 53°06' W 070°54'0 0.0 300 / 251003.0 12.8 7.4
2017-Dec-12 17:00S 53°06' W 070°54'0 0.0 300 / 211003.3 12.1 7.4
2017-Dec-12 16:00S 53°06' W 070°54'0 0.0 300 / 131003.6 11.2 7.4
2017-Dec-12 15:00S 53°06' W 070°54'0 0.0 290 / 131004.0 10.5 7.4
2017-Dec-12 14:00S 53°06' W 070°54'0 0.0 300 / 121004.1 10.1 7.4
2017-Dec-12 13:00S 53°06' W 070°54'0 0.0 290 / 101004.2 9.2 7.4
2017-Dec-12 12:00S 53°06' W 070°54'0 0.0 290 / 101004.3 8.8 7.4
2017-Dec-12 11:00S 53°06' W 070°54'0 0.0 280 / 91004.4 8.6 7.4
2017-Dec-12 10:00S 53°06' W 070°54'0 0.0 270 / 81004.0 8.5 7.4
2017-Dec-12 09:00S 53°06' W 070°54'0 0.0 250 / 81003.5 8.1 7.4
2017-Dec-12 08:00S 53°06' W 070°54'0 0.0 260 / 111002.7 7.4 7.4
2017-Dec-12 07:00S 53°06' W 070°54'0 0.0 260 / 141002.3 7.2 7.4
2017-Dec-12 06:00S 53°06' W 070°54'0 0.0 270 / 131002.1 7.5 7.4
2017-Dec-12 05:00S 53°06' W 070°54'0 0.0 270 / 131001.7 7.5 7.4
2017-Dec-12 04:00S 53°06' W 070°54'0 0.0 270 / 161000.6 7.5 7.4
2017-Dec-12 03:00S 53°06' W 070°54'0 0.0 270 / 71000.3 7.7 7.4
2017-Dec-12 02:00S 53°06' W 070°54'0 0.0 260 / 9999.4 8.0 7.4
2017-Dec-12 01:00S 53°06' W 070°54'0 0.0 260 / 13998.2 8.0 7.4
2017-Dec-12 00:00S 53°06' W 070°54'0 0.0 260 / 18997.0 8.7 7.4
2017-Dec-11 23:00S 53°06' W 070°54'4 3.6 270 / 21996.2 8.8 7.4
2017-Dec-11 22:00S 53°06' W 070°48'0 0.0 270 / 21996.1 8.9 7.4
2017-Dec-11 21:00S 53°06' W 070°48'0 0.0 280 / 19995.6 9.0 7.4
2017-Dec-11 20:00S 53°06' W 070°48'0 0.0 270 / 13995.8 9.0 7.4
2017-Dec-11 19:00S 53°06' W 070°48'0 0.0 270 / 14995.7 9.6 7.4
2017-Dec-11 18:00S 53°06' W 070°48'0 0.0 260 / 21996.0 11.0 7.4
2017-Dec-11 17:00S 53°06' W 070°48'0 0.0 260 / 24996.6 12.6 7.4
2017-Dec-11 16:00S 53°06' W 070°48'0 0.0 260 / 22996.7 13.6 7.4
2017-Dec-11 15:00S 53°06' W 070°48'0 0.0 270 / 21997.5 13.4 7.4
2017-Dec-11 14:00S 53°06' W 070°48'0 0.0 270 / 21998.3 13.1 7.4
2017-Dec-11 13:00S 53°06' W 070°48'0 0.0 260 / 16999.2 12.1 7.4
2017-Dec-11 12:00S 53°06' W 070°48'4 3.6 270 / 20998.8 11.3 7.4
2017-Dec-11 11:00S 53°06' W 070°54'0 0.0 270 / 26998.2 10.7 7.4
2017-Dec-11 10:00S 53°06' W 070°54'0 0.0 270 / 27998.4 10.2 7.4
2017-Dec-11 09:00S 53°06' W 070°54'0 0.0 270 / 28999.0 9.9 7.4
2017-Dec-11 08:00S 53°06' W 070°54'0 0.0 270 / 30998.9 10.0 7.4
2017-Dec-11 07:00S 53°06' W 070°54'0 0.0 270 / 31999.0 9.9 7.4
2017-Dec-11 06:00S 53°06' W 070°54'0 0.0 270 / 33998.9 10.1 7.4
2017-Dec-11 05:00S 53°06' W 070°54'0 0.0 270 / 30999.2 10.4 7.4
2017-Dec-11 04:00S 53°06' W 070°54'0 0.0 270 / 31999.2 10.8 7.4
2017-Dec-11 03:00S 53°06' W 070°54'0 0.0 270 / 32999.0 11.1 7.4
2017-Dec-11 02:00S 53°06' W 070°54'0 0.0 270 / 32998.3 11.5 7.4
2017-Dec-11 01:00S 53°06' W 070°54'0 0.0 270 / 36997.3 12.3 7.4
2017-Dec-11 00:00S 53°06' W 070°54'0 0.0 270 / 40996.5 13.2 7.4
2017-Dec-10 23:00S 53°06' W 070°54'0 0.0 270 / 39996.3 14.2 7.4
2017-Dec-10 22:00S 53°06' W 070°54'0 0.0 280 / 38996.1 14.2 7.4
2017-Dec-10 21:00S 53°06' W 070°54'0 0.0 280 / 42995.2 14.9 7.4
2017-Dec-10 20:00S 53°06' W 070°54'0 0.0 280 / 32995.9 15.5 7.4
2017-Dec-10 19:00S 53°06' W 070°54'0 0.0 280 / 20997.9 14.8 7.4
2017-Dec-10 18:00S 53°06' W 070°54'0 0.0 290 / 15999.0 13.5 7.4
2017-Dec-10 17:00S 53°06' W 070°54'0 0.0 280 / 10999.8 13.2 7.4
2017-Dec-10 16:00S 53°06' W 070°54'0 0.0 310 / 111000.3 12.6 7.4
2017-Dec-10 15:00S 53°06' W 070°54'0 0.0 020 / 101001.1 10.3 7.4
2017-Dec-10 14:00S 53°06' W 070°54'0 0.0 040 / 81002.3 8.6 7.4
2017-Dec-10 13:00S 53°06' W 070°54'0 0.0 020 / 101003.0 8.3 7.4
2017-Dec-10 12:00S 53°06' W 070°54'0 0.0 350 / 71004.0 8.0 7.4
2017-Dec-10 11:00S 53°06' W 070°54'0 0.0 320 / 71004.6 8.1 7.4
2017-Dec-10 10:00S 53°06' W 070°54'0 0.0 340 / 61005.0 7.5 7.4
2017-Dec-10 09:00S 53°06' W 070°54'0 0.0 280 / 71005.1 7.4 7.4
2017-Dec-10 08:00S 53°06' W 070°54'0 0.0 280 / 71004.8 7.3 7.4
2017-Dec-10 07:00S 53°06' W 070°54'0 0.0 280 / 91005.0 7.3 7.4
2017-Dec-10 06:00S 53°06' W 070°54'0 0.0 270 / 121004.7 7.3 7.4
2017-Dec-10 05:00S 53°06' W 070°54'0 0.0 280 / 161004.0 7.6 7.4
2017-Dec-10 04:00S 53°06' W 070°54'0 0.0 280 / 131003.7 7.5 7.4
2017-Dec-10 03:00S 53°06' W 070°54'0 0.0 290 / 141003.1 7.9 7.4
2017-Dec-10 02:00S 53°06' W 070°54'0 0.0 280 / 141002.4 8.5 7.4
2017-Dec-10 01:00S 53°06' W 070°54'0 0.0 270 / 111001.3 9.5 7.4
2017-Dec-10 00:00S 53°06' W 070°54'0 0.0 240 / 9999.8 10.6 7.4
2017-Dec-09 23:00S 53°06' W 070°54'0 0.0 070 / 3998.9 9.5 7.4
2017-Dec-09 22:00S 53°06' W 070°54'0 0.0 110 / 7997.7 8.6 7.4
2017-Dec-09 21:00S 53°06' W 070°54'0 0.0 210 / 16996.1 10.9 7.4
2017-Dec-09 20:00S 53°06' W 070°54'0 0.0 240 / 13994.9 10.4 7.4
2017-Dec-09 19:00S 53°06' W 070°54'0 0.0 260 / 11994.6 8.8 7.4
2017-Dec-09 18:00S 53°06' W 070°54'0 0.0 270 / 14995.1 7.6 7.4
2017-Dec-09 17:00S 53°06' W 070°54'0 0.0 270 / 15995.2 7.5 7.4
2017-Dec-09 16:00S 53°06' W 070°54'0 0.0 270 / 15995.3 7.2 7.4
2017-Dec-09 15:00S 53°06' W 070°54'0 0.0 280 / 10995.9 6.9 7.4
2017-Dec-09 14:00S 53°06' W 070°54'0 0.0 290 / 11996.6 6.2 7.4
2017-Dec-09 13:00S 53°06' W 070°54'0 0.0 290 / 14997.0 5.9 7.4
2017-Dec-09 12:00S 53°06' W 070°54'0 0.0 290 / 10997.3 6.2 7.4
2017-Dec-09 11:00S 53°06' W 070°54'0 0.0 310 / 10997.4 6.2 7.4
2017-Dec-09 10:00S 53°06' W 070°54'0 0.0 290 / 8997.1 6.0 7.4
2017-Dec-09 09:00S 53°06' W 070°54'0 0.0 270 / 14996.5 5.7 7.4
2017-Dec-09 08:00S 53°06' W 070°54'0 0.0 270 / 17996.3 5.5 7.4
2017-Dec-09 07:00S 53°06' W 070°54'0 0.0 280 / 21996.0 5.3 7.4
2017-Dec-09 06:00S 53°06' W 070°54'0 0.0 280 / 22995.9 5.3 7.4
2017-Dec-09 05:00S 53°06' W 070°54'0 0.0 270 / 20996.3 5.7 7.4
2017-Dec-09 04:00S 53°06' W 070°54'0 0.0 270 / 13996.2 6.1 7.4
2017-Dec-09 03:00S 53°06' W 070°54'0 0.0 270 / 11995.8 6.6 7.4
2017-Dec-09 02:00S 53°06' W 070°54'0 0.0 270 / 18995.2 7.6 7.4
2017-Dec-09 01:00S 53°06' W 070°54'0 0.0 270 / 7994.8 8.8 7.4
2017-Dec-09 00:00S 53°06' W 070°54'4 3.6 280 / 13994.3 9.5 7.4
2017-Dec-08 23:00S 53°06' W 070°48'0 0.0 280 / 18993.9 9.7 7.4
2017-Dec-08 22:00S 53°06' W 070°48'0 0.0 290 / 23993.5 10.6 7.4
2017-Dec-08 21:00S 53°06' W 070°48'0 0.0 310 / 21993.6 10.8 7.4
2017-Dec-08 20:00S 53°06' W 070°48'0 0.0 320 / 20994.2 10.6 7.4
2017-Dec-08 19:00S 53°06' W 070°48'0 0.0 330 / 20994.6 10.5 7.4
2017-Dec-08 18:00S 53°06' W 070°48'6 6.0 330 / 18995.4 10.4 7.4
2017-Dec-08 17:00S 53°12' W 070°48'6 6.0 320 / 21996.3 9.7 7.4
2017-Dec-08 16:00S 53°18' W 070°48'1212.0 330 / 19997.1 9.2 7.4
2017-Dec-08 15:00S 53°30' W 070°48'6 6.0 340 / 18998.0 8.9 7.4
2017-Dec-08 14:00S 53°36' W 070°48'7 7.0 998.9 8.3 7.4
2017-Dec-08 13:00S 53°42' W 070°54'9 9.3 999.9 7.9 7.4
2017-Dec-08 12:00S 53°48' W 071°06'1110.6 030 / 81000.5 7.5 7.4
2017-Dec-08 11:00S 53°48' W 071°24'1110.6 290 / 231001.0 7.7 7.4
2017-Dec-08 10:00S 53°48' W 071°42'9 9.3 290 / 261001.9 7.6 7.4
2017-Dec-08 09:00S 53°42' W 071°54'1212.2 300 / 261002.6 7.3 7.4
2017-Dec-08 08:00S 53°36' W 072°12'9 9.3 310 / 231003.5 7.4 7.4
2017-Dec-08 07:00S 53°30' W 072°24'1212.3 300 / 201004.5 7.7 7.4
2017-Dec-08 06:00S 53°24' W 072°42'9 9.3 310 / 191005.7 7.0 7.4
2017-Dec-08 05:00S 53°18' W 072°54'1212.3 290 / 161006.9 6.8 7.4
2017-Dec-08 04:00S 53°12' W 073°12'9 9.4 300 / 131007.9 7.0 7.4
2017-Dec-08 03:00S 53°06' W 073°24'9 9.4 300 / 221008.5 7.6 7.4
2017-Dec-08 02:00S 53°00' W 073°36'1212.4 310 / 191009.0 8.5 7.4
2017-Dec-08 01:00S 52°54' W 073°54'9 9.4 290 / 161009.3 7.6 7.4
2017-Dec-08 00:00S 52°48' W 074°06'1212.4 280 / 151009.5 7.7 7.4
2017-Dec-07 23:00S 52°42' W 074°24'9 9.4 280 / 151009.8 7.4 7.4
2017-Dec-07 22:00S 52°36' W 074°36'1110.9 270 / 181010.0 7.2 7.4
2017-Dec-07 21:00S 52°36' W 074°54'1110.9 270 / 171010.1 7.8 7.4
2017-Dec-07 20:00S 52°36' W 075°12'7 7.3 260 / 171009.9 7.5 7.4
2017-Dec-07 19:00S 52°36' W 075°24'1212.5 260 / 171009.9 7.7 7.4
2017-Dec-07 18:00S 52°42' W 075°42'1110.9 250 / 161009.5 6.8 7.4
2017-Dec-07 17:00S 52°42' W 076°00'7 7.3 240 / 161008.9 6.3 7.4
2017-Dec-07 16:00S 52°42' W 076°12'1110.9 240 / 171008.2 6.7 7.4
2017-Dec-07 15:00S 52°42' W 076°30'9 9.4 230 / 171007.4 6.4 7.4
2017-Dec-07 14:00S 52°48' W 076°42'1110.9 220 / 181006.6 6.3 7.4
2017-Dec-07 13:00S 52°48' W 077°00'   220 / 231005.1 6.2 7.4
Track history (hours):
 
Tides and Currents Weather Stations Pressure Air Temp Water Temp Dewpoint Dewpoint Depression Visibility Wind Speed Wind Dir Waves Ship Positions

Oceanographic research ship Nathaniel B. Palmer (USA)

Contact: Ethan Norris, ethan.norris.contractor@usap.gov

Detailed information on ship capabilities available from University of Delaware's Ocean Information Center and ARCUS's ALIAS (Arctic Logistics Information and Support) project.

Owner: OFFSHORE SERVICE VESSELS, GALLIANO, LA. More information available from US FCC via Universal Licensing System and Coast Guard Vessel Documentation Center.

Last reported at 2017-Dec-17 13:00 UTC. Time now 2017-Dec-17 14:25 UTC.
Position S 53°06' W 070°54'.

Type: Other ship. MMSI: 366610000.

Wind from 310 at 16 knots

Barometer 997.1 mb
Air temperature 8.7 ° C
Water temperature -0.0 ° C

Date/timePositionNaut miles runAvg speedWind from/ knotsBaromVisibWave heightAir tempDewpointWater temp
2017-Dec-17 13:00S 53°06' W 070°54'0 0.0 310 / 16997.1 8.7 -0.0
2017-Dec-17 12:00S 53°06' W 070°54'0 0.0 320 / 10998.4 7.7 -0.0
2017-Dec-17 11:00S 53°06' W 070°54'0 0.0 999.0 6.8 -0.0
2017-Dec-17 10:00S 53°06' W 070°54'0 0.0 350 / 7999.6 6.4 -0.0
2017-Dec-17 09:00S 53°06' W 070°54'0 0.0 310 / 8999.8 5.9 -0.0
2017-Dec-17 08:00S 53°06' W 070°54'0 0.0 280 / 10999.9 5.9 -0.0
2017-Dec-17 07:00S 53°06' W 070°54'0 0.0 280 / 14999.9 6.1 -0.0
2017-Dec-17 06:00S 53°06' W 070°54'0 0.0 270 / 12999.9 5.7 -0.0
2017-Dec-17 05:00S 53°06' W 070°54'0 0.0 300 / 71000.3 5.3 -0.0
2017-Dec-17 04:00S 53°06' W 070°54'0 0.0 300 / 71000.3 5.2 -0.0
2017-Dec-17 03:00S 53°06' W 070°54'0 0.0 270 / 11999.8 5.3 -0.0
2017-Dec-17 02:00S 53°06' W 070°54'0 0.0 270 / 16998.9 5.5 -0.0
2017-Dec-17 01:00S 53°06' W 070°54'4 3.6 270 / 17997.9 6.0 -0.0
2017-Dec-17 00:00S 53°06' W 070°48'0 0.0 260 / 21997.1 6.9 -0.0
2017-Dec-16 23:00S 53°06' W 070°48'0 0.0 250 / 21996.2 7.9 -0.0
2017-Dec-16 22:00S 53°06' W 070°48'0 0.0 250 / 28995.0 7.8 -0.0
2017-Dec-16 21:00S 53°06' W 070°48'0 0.0 250 / 26994.0 7.5 -0.0
2017-Dec-16 20:00S 53°06' W 070°48'0 0.0 270 / 22993.1 6.8 -0.0
2017-Dec-16 19:00S 53°06' W 070°48'0 0.0 240 / 23992.2 7.6 -0.0
2017-Dec-16 18:00S 53°06' W 070°48'0 0.0 260 / 23991.4 7.2 -0.0
2017-Dec-16 17:00S 53°06' W 070°48'0 0.0 260 / 20990.5 7.7 -0.0
2017-Dec-16 16:00S 53°06' W 070°48'0 0.0 250 / 21989.7 7.7 -0.0
2017-Dec-16 15:00S 53°06' W 070°48'4 3.6 260 / 20989.2 7.4 -0.0
2017-Dec-16 14:00S 53°06' W 070°54'0 0.0 260 / 17988.4 7.5 -0.0
2017-Dec-16 13:00S 53°06' W 070°54'0 0.0 260 / 15988.0 6.8 -0.0
2017-Dec-16 12:00S 53°06' W 070°54'0 0.0 270 / 15987.6 6.4 -0.0
2017-Dec-16 11:00S 53°06' W 070°54'0 0.0 270 / 20986.7 5.4 -0.0
2017-Dec-16 10:00S 53°06' W 070°54'0 0.0 260 / 13986.2 4.9 -0.0
2017-Dec-16 09:00S 53°06' W 070°54'0 0.0 200 / 14982.8 7.3 -0.0
2017-Dec-16 08:00S 53°06' W 070°54'0 0.0 180 / 14981.6 8.2 -0.0
2017-Dec-16 07:00S 53°06' W 070°54'0 0.0 180 / 14981.6 8.2 -0.0
2017-Dec-16 06:00S 53°06' W 070°54'0 0.0 180 / 14981.6 8.2 -0.0
2017-Dec-16 05:00S 53°06' W 070°54'0 0.0 180 / 14981.6 8.2 -0.0
2017-Dec-16 04:00S 53°06' W 070°54'0 0.0 180 / 14981.6 8.2 -0.0
2017-Dec-16 03:00S 53°06' W 070°54'0 0.0 180 / 14981.6 8.2 -0.0
2017-Dec-16 02:00S 53°06' W 070°54'0 0.0 180 / 14981.6 8.2 -0.0
2017-Dec-16 01:00S 53°06' W 070°54'0 0.0 180 / 14981.6 8.2 -0.0
2017-Dec-16 00:00S 53°06' W 070°54'0 0.0 180 / 14981.6 8.2 -0.0
2017-Dec-15 23:00S 53°06' W 070°54'0 0.0 180 / 14981.6 8.2 -0.0
2017-Dec-15 22:00S 53°06' W 070°54'0 0.0 180 / 14981.6 8.2 -0.0
2017-Dec-15 21:00S 53°06' W 070°54'26872687.4 180 / 14981.6 8.3 -0.0
2017-Dec-15 20:00S 22°18' W 029°48'26872687.4 360 / 5413.5 3.4 -0.0
2017-Dec-15 19:00S 53°06' W 070°54'0 0.0 310 / 11982.8 9.5 -0.0
2017-Dec-15 18:00S 53°06' W 070°54'0 0.0 300 / 14983.6 9.0 -0.0
2017-Dec-15 17:00S 53°06' W 070°54'0 0.0 300 / 16984.1 8.8 -0.0
2017-Dec-15 16:00S 53°06' W 070°54'0 0.0 300 / 12984.4 9.1 -0.0
2017-Dec-15 15:00S 53°06' W 070°54'0 0.0 280 / 11984.6 8.5 -0.0
2017-Dec-15 14:00S 53°06' W 070°54'0 0.0 270 / 10985.6 8.2 -0.0
2017-Dec-15 13:00S 53°06' W 070°54'0 0.0 280 / 10986.6 7.9 -0.0
2017-Dec-15 12:00S 53°06' W 070°54'0 0.0 270 / 7987.2 7.8 -0.0
2017-Dec-15 11:00S 53°06' W 070°54'0 0.0 280 / 15987.3 7.1 -0.0
2017-Dec-15 10:00S 53°06' W 070°54'0 0.0 290 / 20987.6 6.6 -0.0
2017-Dec-15 09:00S 53°06' W 070°54'0 0.0 290 / 23988.1 6.3 -0.0
2017-Dec-15 08:00S 53°06' W 070°54'0 0.0 290 / 22988.5 6.3 -0.0
2017-Dec-15 07:00S 53°06' W 070°54'0 0.0 290 / 22988.9 6.3 -0.0
2017-Dec-15 06:00S 53°06' W 070°54'0 0.0 290 / 20989.6 6.3 -0.0
2017-Dec-15 05:00S 53°06' W 070°54'0 0.0 290 / 18990.7 6.6 -0.0
2017-Dec-15 04:00S 53°06' W 070°54'0 0.0 340 / 7991.7 6.5 -0.0
2017-Dec-15 03:00S 53°06' W 070°54'0 0.0 340 / 7992.1 6.6 -0.0
2017-Dec-15 02:00S 53°06' W 070°54'0 0.0 320 / 9992.3 6.6 -0.0
2017-Dec-15 01:00S 53°06' W 070°54'0 0.0 300 / 8992.2 7.1 -0.0
2017-Dec-15 00:00S 53°06' W 070°54'0 0.0 280 / 13992.0 7.6 -0.0
2017-Dec-14 23:00S 53°06' W 070°54'0 0.0 270 / 14992.0 7.4 -0.0
2017-Dec-14 22:00S 53°06' W 070°54'10261026.3 260 / 16991.8 7.8 -0.0
2017-Dec-14 21:00S 40°30' W 054°00'1026342.1 270 / 9756.2 6.3 -0.0
2017-Dec-14 18:00S 53°06' W 070°54'0 0.0 270 / 20989.8 9.0 7.4
2017-Dec-14 17:00S 53°06' W 070°54'0 0.0 280 / 23989.5 8.7 7.4
2017-Dec-14 16:00S 53°06' W 070°54'0 0.0 280 / 22989.3 7.3 7.4
2017-Dec-14 15:00S 53°06' W 070°54'0 0.0 280 / 21988.7 7.9 7.4
2017-Dec-14 14:00S 53°06' W 070°54'0 0.0 290 / 20988.6 6.6 7.4
2017-Dec-14 13:00S 53°06' W 070°54'0 0.0 290 / 20 7.7
2017-Dec-14 12:00S 53°06' W 070°54'0 0.0 290 / 23 7.7
2017-Dec-14 11:00S 53°06' W 070°54'0 0.0 290 / 24 7.1
2017-Dec-14 10:00S 53°06' W 070°54'0 0.0 300 / 20987.5 5.6 7.4
2017-Dec-14 09:00S 53°06' W 070°54'0 0.0 290 / 23987.9 4.9 7.4
2017-Dec-14 08:00S 53°06' W 070°54'0 0.0 290 / 23987.0 5.8 7.4
2017-Dec-14 07:00S 53°06' W 070°54'0 0.0 290 / 22987.3 5.9 7.4
2017-Dec-14 06:00S 53°06' W 070°54'0 0.0 290 / 23987.3 7.1 7.4
2017-Dec-14 05:00S 53°06' W 070°54'0 0.0 290 / 24986.9 7.4 7.4
2017-Dec-14 04:00S 53°06' W 070°54'0 0.0 280 / 24987.0 7.3 7.4
2017-Dec-14 03:00S 53°06' W 070°54'0 0.0 270 / 30986.9 7.6 7.4
2017-Dec-14 02:00S 53°06' W 070°54'0 0.0 280 / 21987.3 8.0 7.4
2017-Dec-14 01:00S 53°06' W 070°54'0 0.0 280 / 25987.1 8.5 7.4
2017-Dec-14 00:00S 53°06' W 070°54'0 0.0 270 / 26986.9 8.8 7.4
2017-Dec-13 23:00S 53°06' W 070°54'0 0.0 280 / 22986.5 11.0 7.4
2017-Dec-13 22:00S 53°06' W 070°54'0 0.0 290 / 21985.9 13.4 7.4
2017-Dec-13 21:00S 53°06' W 070°54'0 0.0 310 / 25986.4 14.7 7.4
2017-Dec-13 20:00S 53°06' W 070°54'0 0.0 320 / 24986.5 15.9 7.4
2017-Dec-13 19:00S 53°06' W 070°54'0 0.0 310 / 21987.7 15.4 7.4
2017-Dec-13 18:00S 53°06' W 070°54'0 0.0 340 / 17989.2 15.1 7.4
2017-Dec-13 17:00S 53°06' W 070°54'0 0.0 330 / 16990.4 14.5 7.4
2017-Dec-13 16:00S 53°06' W 070°54'0 0.0 320 / 13991.7 13.2 7.4
2017-Dec-13 15:00S 53°06' W 070°54'0 0.0 010 / 10992.7 11.7 7.4
2017-Dec-13 14:00S 53°06' W 070°54'0 0.0 340 / 14993.2 11.2 7.4
2017-Dec-13 13:00S 53°06' W 070°54'0 0.0 994.5 11.1 7.4
2017-Dec-13 12:00S 53°06' W 070°54'0 0.0 010 / 10995.7 11.2 7.4
2017-Dec-13 11:00S 53°06' W 070°54'0 0.0 340 / 7997.0 10.8 7.4
2017-Dec-13 10:00S 53°06' W 070°54'0 0.0 320 / 11997.3 10.3 7.4
2017-Dec-13 09:00S 53°06' W 070°54'0 0.0 330 / 11997.6 10.3 7.4
2017-Dec-13 08:00S 53°06' W 070°54'0 0.0 998.2 10.1 7.4
2017-Dec-13 07:00S 53°06' W 070°54'0 0.0 330 / 10999.0 10.5 7.4
2017-Dec-13 06:00S 53°06' W 070°54'0 0.0 320 / 9999.7 10.4 7.4
2017-Dec-13 05:00S 53°06' W 070°54'0 0.0 310 / 131000.3 10.7 7.4
2017-Dec-13 04:00S 53°06' W 070°54'0 0.0 330 / 81001.0 10.9 7.4
2017-Dec-13 03:00S 53°06' W 070°54'0 0.0 340 / 101001.1 10.9 7.4
2017-Dec-13 02:00S 53°06' W 070°54'0 0.0 360 / 81001.3 11.2 7.4
2017-Dec-13 01:00S 53°06' W 070°54'0 0.0 310 / 141001.6 11.9 7.4
2017-Dec-13 00:00S 53°06' W 070°54'0 0.0 300 / 221002.0 12.6 7.4
2017-Dec-12 23:00S 53°06' W 070°54'0 0.0 300 / 261002.2 12.9 7.4
2017-Dec-12 22:00S 53°06' W 070°54'0 0.0 290 / 231002.3 13.3 7.4
2017-Dec-12 21:00S 53°06' W 070°54'0 0.0 290 / 231002.6 13.9 7.4
2017-Dec-12 20:00S 53°06' W 070°54'0 0.0 290 / 241002.8 13.2 7.4
2017-Dec-12 19:00S 53°06' W 070°54'0 0.0 290 / 221003.1 12.9 7.4
2017-Dec-12 18:00S 53°06' W 070°54'0 0.0 300 / 251003.0 12.8 7.4
2017-Dec-12 17:00S 53°06' W 070°54'0 0.0 300 / 211003.3 12.1 7.4
2017-Dec-12 16:00S 53°06' W 070°54'0 0.0 300 / 131003.6 11.2 7.4
2017-Dec-12 15:00S 53°06' W 070°54'0 0.0 290 / 131004.0 10.5 7.4
2017-Dec-12 14:00S 53°06' W 070°54'0 0.0 300 / 121004.1 10.1 7.4
2017-Dec-12 13:00S 53°06' W 070°54'0 0.0 290 / 101004.2 9.2 7.4
2017-Dec-12 12:00S 53°06' W 070°54'0 0.0 290 / 101004.3 8.8 7.4
2017-Dec-12 11:00S 53°06' W 070°54'0 0.0 280 / 91004.4 8.6 7.4
2017-Dec-12 10:00S 53°06' W 070°54'0 0.0 270 / 81004.0 8.5 7.4
2017-Dec-12 09:00S 53°06' W 070°54'0 0.0 250 / 81003.5 8.1 7.4
2017-Dec-12 08:00S 53°06' W 070°54'0 0.0 260 / 111002.7 7.4 7.4
2017-Dec-12 07:00S 53°06' W 070°54'0 0.0 260 / 141002.3 7.2 7.4
2017-Dec-12 06:00S 53°06' W 070°54'0 0.0 270 / 131002.1 7.5 7.4
2017-Dec-12 05:00S 53°06' W 070°54'0 0.0 270 / 131001.7 7.5 7.4
2017-Dec-12 04:00S 53°06' W 070°54'0 0.0 270 / 161000.6 7.5 7.4
2017-Dec-12 03:00S 53°06' W 070°54'0 0.0 270 / 71000.3 7.7 7.4
2017-Dec-12 02:00S 53°06' W 070°54'0 0.0 260 / 9999.4 8.0 7.4
2017-Dec-12 01:00S 53°06' W 070°54'0 0.0 260 / 13998.2 8.0 7.4
2017-Dec-12 00:00S 53°06' W 070°54'0 0.0 260 / 18997.0 8.7 7.4
2017-Dec-11 23:00S 53°06' W 070°54'4 3.6 270 / 21996.2 8.8 7.4
2017-Dec-11 22:00S 53°06' W 070°48'0 0.0 270 / 21996.1 8.9 7.4
2017-Dec-11 21:00S 53°06' W 070°48'0 0.0 280 / 19995.6 9.0 7.4
2017-Dec-11 20:00S 53°06' W 070°48'0 0.0 270 / 13995.8 9.0 7.4
2017-Dec-11 19:00S 53°06' W 070°48'0 0.0 270 / 14995.7 9.6 7.4
2017-Dec-11 18:00S 53°06' W 070°48'0 0.0 260 / 21996.0 11.0 7.4
2017-Dec-11 17:00S 53°06' W 070°48'0 0.0 260 / 24996.6 12.6 7.4
2017-Dec-11 16:00S 53°06' W 070°48'0 0.0 260 / 22996.7 13.6 7.4
2017-Dec-11 15:00S 53°06' W 070°48'0 0.0 270 / 21997.5 13.4 7.4
2017-Dec-11 14:00S 53°06' W 070°48'0 0.0 270 / 21998.3 13.1 7.4
2017-Dec-11 13:00S 53°06' W 070°48'0 0.0 260 / 16999.2 12.1 7.4
2017-Dec-11 12:00S 53°06' W 070°48'4 3.6 270 / 20998.8 11.3 7.4
2017-Dec-11 11:00S 53°06' W 070°54'0 0.0 270 / 26998.2 10.7 7.4
2017-Dec-11 10:00S 53°06' W 070°54'0 0.0 270 / 27998.4 10.2 7.4
2017-Dec-11 09:00S 53°06' W 070°54'0 0.0 270 / 28999.0 9.9 7.4
2017-Dec-11 08:00S 53°06' W 070°54'0 0.0 270 / 30998.9 10.0 7.4
2017-Dec-11 07:00S 53°06' W 070°54'0 0.0 270 / 31999.0 9.9 7.4
2017-Dec-11 06:00S 53°06' W 070°54'0 0.0 270 / 33998.9 10.1 7.4
2017-Dec-11 05:00S 53°06' W 070°54'0 0.0 270 / 30999.2 10.4 7.4
2017-Dec-11 04:00S 53°06' W 070°54'0 0.0 270 / 31999.2 10.8 7.4
2017-Dec-11 03:00S 53°06' W 070°54'0 0.0 270 / 32999.0 11.1 7.4
2017-Dec-11 02:00S 53°06' W 070°54'0 0.0 270 / 32998.3 11.5 7.4
2017-Dec-11 01:00S 53°06' W 070°54'0 0.0 270 / 36997.3 12.3 7.4
2017-Dec-11 00:00S 53°06' W 070°54'0 0.0 270 / 40996.5 13.2 7.4
2017-Dec-10 23:00S 53°06' W 070°54'0 0.0 270 / 39996.3 14.2 7.4
2017-Dec-10 22:00S 53°06' W 070°54'0 0.0 280 / 38996.1 14.2 7.4
2017-Dec-10 21:00S 53°06' W 070°54'0 0.0 280 / 42995.2 14.9 7.4
2017-Dec-10 20:00S 53°06' W 070°54'0 0.0 280 / 32995.9 15.5 7.4
2017-Dec-10 19:00S 53°06' W 070°54'0 0.0 280 / 20997.9 14.8 7.4
2017-Dec-10 18:00S 53°06' W 070°54'0 0.0 290 / 15999.0 13.5 7.4
2017-Dec-10 17:00S 53°06' W 070°54'0 0.0 280 / 10999.8 13.2 7.4
2017-Dec-10 16:00S 53°06' W 070°54'0 0.0 310 / 111000.3 12.6 7.4
2017-Dec-10 15:00S 53°06' W 070°54'0 0.0 020 / 101001.1 10.3 7.4
2017-Dec-10 14:00S 53°06' W 070°54'0 0.0 040 / 81002.3 8.6 7.4
2017-Dec-10 13:00S 53°06' W 070°54'0 0.0 020 / 101003.0 8.3 7.4
2017-Dec-10 12:00S 53°06' W 070°54'0 0.0 350 / 71004.0 8.0 7.4
2017-Dec-10 11:00S 53°06' W 070°54'0 0.0 320 / 71004.6 8.1 7.4
2017-Dec-10 10:00S 53°06' W 070°54'0 0.0 340 / 61005.0 7.5 7.4
2017-Dec-10 09:00S 53°06' W 070°54'0 0.0 280 / 71005.1 7.4 7.4
2017-Dec-10 08:00S 53°06' W 070°54'0 0.0 280 / 71004.8 7.3 7.4
2017-Dec-10 07:00S 53°06' W 070°54'0 0.0 280 / 91005.0 7.3 7.4
2017-Dec-10 06:00S 53°06' W 070°54'0 0.0 270 / 121004.7 7.3 7.4
2017-Dec-10 05:00S 53°06' W 070°54'0 0.0 280 / 161004.0 7.6 7.4
2017-Dec-10 04:00S 53°06' W 070°54'0 0.0 280 / 131003.7 7.5 7.4
2017-Dec-10 03:00S 53°06' W 070°54'0 0.0 290 / 141003.1 7.9 7.4
2017-Dec-10 02:00S 53°06' W 070°54'0 0.0 280 / 141002.4 8.5 7.4
2017-Dec-10 01:00S 53°06' W 070°54'0 0.0 270 / 111001.3 9.5 7.4
2017-Dec-10 00:00S 53°06' W 070°54'0 0.0 240 / 9999.8 10.6 7.4
2017-Dec-09 23:00S 53°06' W 070°54'0 0.0 070 / 3998.9 9.5 7.4
2017-Dec-09 22:00S 53°06' W 070°54'0 0.0 110 / 7997.7 8.6 7.4
2017-Dec-09 21:00S 53°06' W 070°54'0 0.0 210 / 16996.1 10.9 7.4
2017-Dec-09 20:00S 53°06' W 070°54'0 0.0 240 / 13994.9 10.4 7.4
2017-Dec-09 19:00S 53°06' W 070°54'0 0.0 260 / 11994.6 8.8 7.4
2017-Dec-09 18:00S 53°06' W 070°54'0 0.0 270 / 14995.1 7.6 7.4
2017-Dec-09 17:00S 53°06' W 070°54'0 0.0 270 / 15995.2 7.5 7.4
2017-Dec-09 16:00S 53°06' W 070°54'0 0.0 270 / 15995.3 7.2 7.4
2017-Dec-09 15:00S 53°06' W 070°54'0 0.0 280 / 10995.9 6.9 7.4
2017-Dec-09 14:00S 53°06' W 070°54'0 0.0 290 / 11996.6 6.2 7.4
2017-Dec-09 13:00S 53°06' W 070°54'0 0.0 290 / 14997.0 5.9 7.4
2017-Dec-09 12:00S 53°06' W 070°54'0 0.0 290 / 10997.3 6.2 7.4
2017-Dec-09 11:00S 53°06' W 070°54'0 0.0 310 / 10997.4 6.2 7.4
2017-Dec-09 10:00S 53°06' W 070°54'0 0.0 290 / 8997.1 6.0 7.4
2017-Dec-09 09:00S 53°06' W 070°54'0 0.0 270 / 14996.5 5.7 7.4
2017-Dec-09 08:00S 53°06' W 070°54'0 0.0 270 / 17996.3 5.5 7.4
2017-Dec-09 07:00S 53°06' W 070°54'0 0.0 280 / 21996.0 5.3 7.4
2017-Dec-09 06:00S 53°06' W 070°54'0 0.0 280 / 22995.9 5.3 7.4
2017-Dec-09 05:00S 53°06' W 070°54'0 0.0 270 / 20996.3 5.7 7.4
2017-Dec-09 04:00S 53°06' W 070°54'0 0.0 270 / 13996.2 6.1 7.4
2017-Dec-09 03:00S 53°06' W 070°54'0 0.0 270 / 11995.8 6.6 7.4
2017-Dec-09 02:00S 53°06' W 070°54'0 0.0 270 / 18995.2 7.6 7.4
2017-Dec-09 01:00S 53°06' W 070°54'0 0.0 270 / 7994.8 8.8 7.4
2017-Dec-09 00:00S 53°06' W 070°54'4 3.6 280 / 13994.3 9.5 7.4
2017-Dec-08 23:00S 53°06' W 070°48'0 0.0 280 / 18993.9 9.7 7.4
2017-Dec-08 22:00S 53°06' W 070°48'0 0.0 290 / 23993.5 10.6 7.4
2017-Dec-08 21:00S 53°06' W 070°48'0 0.0 310 / 21993.6 10.8 7.4
2017-Dec-08 20:00S 53°06' W 070°48'0 0.0 320 / 20994.2 10.6 7.4
2017-Dec-08 19:00S 53°06' W 070°48'0 0.0 330 / 20994.6 10.5 7.4
2017-Dec-08 18:00S 53°06' W 070°48'6 6.0 330 / 18995.4 10.4 7.4
2017-Dec-08 17:00S 53°12' W 070°48'6 6.0 320 / 21996.3 9.7 7.4
2017-Dec-08 16:00S 53°18' W 070°48'1212.0 330 / 19997.1 9.2 7.4
2017-Dec-08 15:00S 53°30' W 070°48'6 6.0 340 / 18998.0 8.9 7.4
2017-Dec-08 14:00S 53°36' W 070°48'7 7.0 998.9 8.3 7.4
2017-Dec-08 13:00S 53°42' W 070°54'9 9.3 999.9 7.9 7.4
2017-Dec-08 12:00S 53°48' W 071°06'1110.6 030 / 81000.5 7.5 7.4
2017-Dec-08 11:00S 53°48' W 071°24'1110.6 290 / 231001.0 7.7 7.4
2017-Dec-08 10:00S 53°48' W 071°42'9 9.3 290 / 261001.9 7.6 7.4
2017-Dec-08 09:00S 53°42' W 071°54'1212.2 300 / 261002.6 7.3 7.4
2017-Dec-08 08:00S 53°36' W 072°12'9 9.3 310 / 231003.5 7.4 7.4
2017-Dec-08 07:00S 53°30' W 072°24'1212.3 300 / 201004.5 7.7 7.4
2017-Dec-08 06:00S 53°24' W 072°42'9 9.3 310 / 191005.7 7.0 7.4
2017-Dec-08 05:00S 53°18' W 072°54'1212.3 290 / 161006.9 6.8 7.4
2017-Dec-08 04:00S 53°12' W 073°12'9 9.4 300 / 131007.9 7.0 7.4
2017-Dec-08 03:00S 53°06' W 073°24'9 9.4 300 / 221008.5 7.6 7.4
2017-Dec-08 02:00S 53°00' W 073°36'1212.4 310 / 191009.0 8.5 7.4
2017-Dec-08 01:00S 52°54' W 073°54'9 9.4 290 / 161009.3 7.6 7.4
2017-Dec-08 00:00S 52°48' W 074°06'1212.4 280 / 151009.5 7.7 7.4
2017-Dec-07 23:00S 52°42' W 074°24'9 9.4 280 / 151009.8 7.4 7.4
2017-Dec-07 22:00S 52°36' W 074°36'1110.9 270 / 181010.0 7.2 7.4
2017-Dec-07 21:00S 52°36' W 074°54'1110.9 270 / 171010.1 7.8 7.4
2017-Dec-07 20:00S 52°36' W 075°12'7 7.3 260 / 171009.9 7.5 7.4
2017-Dec-07 19:00S 52°36' W 075°24'1212.5 260 / 171009.9 7.7 7.4
2017-Dec-07 18:00S 52°42' W 075°42'1110.9 250 / 161009.5 6.8 7.4
2017-Dec-07 17:00S 52°42' W 076°00'7 7.3 240 / 161008.9 6.3 7.4
2017-Dec-07 16:00S 52°42' W 076°12'1110.9 240 / 171008.2 6.7 7.4
2017-Dec-07 15:00S 52°42' W 076°30'9 9.4 230 / 171007.4 6.4 7.4
2017-Dec-07 14:00S 52°48' W 076°42'1110.9 220 / 181006.6 6.3 7.4
2017-Dec-07 13:00S 52°48' W 077°00'   220 / 231005.1 6.2 7.4

Dump ship's entire track history